BLK weather

Blackpool International Airport
Blackpool, England, United Kingdom

Public forecast

Using degrees Celsius for public forecast. Weather courtesy of forecast.io.

Current aviation weather report (METAR) for Blackpool International Airport

Retrieved 2020/04/06 11:20 UTC (7 minutes ago):

EGNH 061120Z 26014KT 9999 FEW028 11/08 Q1015

Aviation forecast (TAF) for Blackpool International Airport

Forecast is more than 12 hours old.

Retrieved 2020/03/11 18:47 UTC (26 days ago):

TAF EGNH 111740Z 1118/1221 24022G32KT 9999 SCT035 TEMPO 1118/1221 6000 SHRA PROB30 TEMPO 1118/1121 25026G42KT 3000 +SHRAGS BKN010 BKN025CB